createdAt,value
2018-08-12T00:00:01.099Z,0
2018-08-12T00:00:41.507Z,0
2018-08-12T00:01:21.921Z,0
2018-08-12T00:02:02.387Z,0
2018-08-12T00:02:42.729Z,0
2018-08-12T00:03:23.192Z,0
2018-08-12T00:04:03.597Z,0
2018-08-12T00:04:44.025Z,0
2018-08-12T00:05:24.368Z,0
2018-08-12T00:06:04.911Z,0
2018-08-12T00:06:45.331Z,0
2018-08-12T00:07:25.733Z,0
2018-08-12T00:08:06.172Z,0
2018-08-12T00:08:46.596Z,0
2018-08-12T00:09:27.042Z,0
2018-08-12T00:10:07.416Z,0
2018-08-12T00:10:47.879Z,0
2018-08-12T00:11:28.273Z,0
2018-08-12T00:12:08.688Z,0
2018-08-12T00:12:49.022Z,0
2018-08-12T00:13:29.443Z,0
2018-08-12T00:14:09.845Z,0
2018-08-12T00:14:50.299Z,0
2018-08-12T00:15:30.666Z,0
2018-08-12T00:16:11.208Z,0
2018-08-12T00:16:51.542Z,0
2018-08-12T00:17:31.992Z,0
2018-08-12T00:18:12.339Z,0
2018-08-12T00:18:52.733Z,0
2018-08-12T00:19:33.160Z,0
2018-08-12T00:20:13.548Z,0
2018-08-12T00:20:53.994Z,0
2018-08-12T00:21:34.427Z,0
2018-08-12T00:22:14.842Z,0
2018-08-12T00:22:55.243Z,0
2018-08-12T00:23:35.636Z,0
2018-08-12T00:24:16.082Z,0
2018-08-12T00:24:56.550Z,0
2018-08-12T00:25:36.929Z,0
2018-08-12T00:26:17.344Z,0
2018-08-12T00:26:57.692Z,0
2018-08-12T00:27:38.123Z,0
2018-08-12T00:28:18.576Z,0
2018-08-12T00:31:47.345Z,0
2018-08-12T00:32:27.129Z,0
2018-08-12T00:33:07.577Z,0
2018-08-12T00:33:47.933Z,0
2018-08-12T00:34:28.369Z,0
2018-08-12T00:35:08.784Z,0
2018-08-12T00:35:49.163Z,0
2018-08-12T00:36:29.640Z,0
2018-08-12T00:39:14.025Z,0
2018-08-12T00:39:51.781Z,0
2018-08-12T00:40:32.121Z,0
2018-08-12T00:41:12.556Z,0
2018-08-12T00:41:52.941Z,0
2018-08-12T00:42:33.371Z,0
2018-08-12T00:43:13.795Z,0
2018-08-12T00:43:54.361Z,0
2018-08-12T00:44:34.667Z,0
2018-08-12T00:45:15.072Z,0
2018-08-12T00:45:55.475Z,0
2018-08-12T00:46:35.913Z,0
2018-08-12T00:47:16.313Z,0
2018-08-12T00:47:56.759Z,0
2018-08-12T00:48:37.176Z,0
2018-08-12T00:49:17.571Z,0
2018-08-12T00:49:57.919Z,0
2018-08-12T00:50:38.344Z,0
2018-08-12T00:51:18.782Z,0
2018-08-12T00:51:59.150Z,0
2018-08-12T00:52:39.576Z,0
2018-08-12T00:53:20.068Z,0
2018-08-12T00:54:00.420Z,0
2018-08-12T00:54:40.882Z,0
2018-08-12T00:55:21.271Z,0
2018-08-12T00:56:01.717Z,0
2018-08-12T00:56:42.081Z,0
2018-08-12T00:57:22.524Z,0
2018-08-12T00:58:02.894Z,0
2018-08-12T01:00:18.845Z,0
2018-08-12T01:01:00.496Z,0
2018-08-12T01:01:40.980Z,0
2018-08-12T01:02:21.338Z,0
2018-08-12T01:03:01.780Z,0
2018-08-12T01:05:33.460Z,0
2018-08-12T01:06:14.406Z,0
2018-08-12T01:06:54.881Z,0
2018-08-12T01:07:35.269Z,0
2018-08-12T01:08:15.606Z,0
2018-08-12T01:08:56.057Z,0
2018-08-12T01:09:36.539Z,0
2018-08-12T01:10:16.932Z,0
2018-08-12T01:10:57.360Z,0
2018-08-12T01:11:37.684Z,0
2018-08-12T01:12:18.195Z,0
2018-08-12T01:12:58.483Z,0
2018-08-12T01:13:38.912Z,0
2018-08-12T01:14:19.371Z,0
2018-08-12T01:14:59.752Z,0
2018-08-12T01:15:40.212Z,0
2018-08-12T01:16:22.066Z,0
2018-08-12T01:17:02.360Z,0
2018-08-12T01:17:42.793Z,0
2018-08-12T01:18:23.208Z,0
2018-08-12T01:19:03.630Z,0
2018-08-12T01:19:44.187Z,0
2018-08-12T01:20:24.595Z,0
2018-08-12T01:21:05.003Z,0
2018-08-12T01:21:45.465Z,0
2018-08-12T01:22:25.874Z,0
2018-08-12T01:23:08.499Z,0
2018-08-12T01:23:48.939Z,0
2018-08-12T01:24:29.344Z,0
2018-08-12T01:25:09.702Z,0
2018-08-12T01:25:50.195Z,0
2018-08-12T01:26:30.597Z,0
2018-08-12T01:27:10.984Z,0
2018-08-12T01:27:51.484Z,0
2018-08-12T01:28:31.896Z,0
2018-08-12T01:29:12.394Z,0
2018-08-12T01:29:52.749Z,0
2018-08-12T01:30:33.187Z,0
2018-08-12T01:31:13.556Z,0
2018-08-12T01:31:54.004Z,0
2018-08-12T01:32:34.377Z,0
2018-08-12T01:33:14.843Z,0
2018-08-12T01:33:57.173Z,0
2018-08-12T01:34:37.530Z,0
2018-08-12T01:35:17.948Z,0
2018-08-12T01:35:58.345Z,0
2018-08-12T01:36:38.703Z,0
2018-08-12T01:37:19.240Z,0
2018-08-12T01:37:59.589Z,0
2018-08-12T01:38:40.048Z,0
2018-08-12T01:39:20.383Z,0
2018-08-12T01:40:00.796Z,0
2018-08-12T01:40:41.184Z,0
2018-08-12T01:41:21.607Z,0
2018-08-12T01:42:01.977Z,0
2018-08-12T01:42:42.429Z,0
2018-08-12T01:43:22.777Z,0
2018-08-12T01:44:03.226Z,0
2018-08-12T01:44:43.675Z,0
2018-08-12T01:45:24.065Z,0
2018-08-12T01:46:04.517Z,0
2018-08-12T01:46:44.857Z,0
2018-08-12T01:47:25.325Z,0
2018-08-12T01:48:05.704Z,0
2018-08-12T01:48:46.118Z,0
2018-08-12T01:49:26.600Z,0
2018-08-12T01:50:06.997Z,0
2018-08-12T01:50:47.365Z,0
2018-08-12T01:51:27.754Z,0
2018-08-12T01:52:08.168Z,0
2018-08-12T01:52:48.583Z,0
2018-08-12T01:53:28.989Z,0
2018-08-12T01:54:09.442Z,0
2018-08-12T01:54:50.040Z,0
2018-08-12T01:55:30.440Z,0
2018-08-12T01:56:10.855Z,0
2018-08-12T01:56:51.284Z,0
2018-08-12T01:57:31.793Z,0
2018-08-12T01:58:12.112Z,0
2018-08-12T01:58:52.556Z,0
2018-08-12T01:59:32.911Z,0
2018-08-12T02:00:13.319Z,0
2018-08-12T02:00:54.023Z,0
2018-08-12T02:01:34.455Z,0
2018-08-12T02:02:14.841Z,0
2018-08-12T02:02:55.249Z,0
2018-08-12T02:03:35.697Z,0
2018-08-12T02:04:16.125Z,0
2018-08-12T02:04:57.423Z,0
2018-08-12T02:05:37.667Z,0
2018-08-12T02:06:18.139Z,0
2018-08-12T02:06:58.571Z,0
2018-08-12T02:07:38.935Z,0
2018-08-12T02:08:19.319Z,0
2018-08-12T02:08:59.772Z,0
2018-08-12T02:09:40.089Z,0
2018-08-12T02:10:20.500Z,0
2018-08-12T02:11:00.949Z,0
2018-08-12T02:11:41.510Z,0
2018-08-12T02:12:21.824Z,0
2018-08-12T02:13:02.199Z,0
2018-08-12T02:13:42.652Z,0
2018-08-12T02:14:22.977Z,0
2018-08-12T02:15:03.387Z,0
2018-08-12T02:15:43.790Z,0
2018-08-12T02:16:24.202Z,0
2018-08-12T02:17:04.670Z,0
2018-08-12T02:17:45.070Z,0
2018-08-12T02:18:31.004Z,0
2018-08-12T02:19:09.285Z,0
2018-08-12T02:19:49.647Z,0
2018-08-12T02:20:30.036Z,0
2018-08-12T02:21:10.439Z,0
2018-08-12T02:21:50.874Z,0
2018-08-12T02:22:31.409Z,0
2018-08-12T02:23:11.642Z,0
2018-08-12T02:23:52.051Z,0
2018-08-12T02:24:32.479Z,0
2018-08-12T02:25:12.919Z,0
2018-08-12T02:25:53.326Z,0
2018-08-12T02:26:33.783Z,0
2018-08-12T02:27:14.112Z,0
2018-08-12T02:27:54.518Z,0
2018-08-12T02:28:35.177Z,0
2018-08-12T02:29:15.543Z,0
2018-08-12T02:29:55.942Z,0
2018-08-12T02:30:36.332Z,0
2018-08-12T02:31:17.055Z,0
2018-08-12T02:31:57.315Z,0
2018-08-12T02:32:37.763Z,0
2018-08-12T02:33:18.155Z,0
2018-08-12T02:33:58.649Z,0
2018-08-12T02:34:39.060Z,0
2018-08-12T02:35:19.455Z,0
2018-08-12T02:35:59.869Z,0
2018-08-12T02:36:40.234Z,0
2018-08-12T02:37:20.636Z,0
2018-08-12T02:38:01.055Z,0
2018-08-12T02:38:41.524Z,0
2018-08-12T02:39:21.854Z,0
2018-08-12T02:40:02.368Z,0
2018-08-12T02:40:42.644Z,0
2018-08-12T02:41:23.101Z,0
2018-08-12T02:42:03.430Z,0
2018-08-12T02:42:43.830Z,0
2018-08-12T02:43:24.235Z,0
2018-08-12T02:44:04.645Z,0
2018-08-12T02:44:45.173Z,0
2018-08-12T02:45:25.482Z,0
2018-08-12T02:46:05.952Z,0
2018-08-12T02:46:46.382Z,0
2018-08-12T02:47:26.828Z,0
2018-08-12T02:48:07.764Z,0
2018-08-12T02:48:50.364Z,0
2018-08-12T02:49:30.791Z,0
2018-08-12T02:50:11.435Z,0
2018-08-12T02:50:52.618Z,0
2018-08-12T02:51:32.867Z,0
2018-08-12T02:52:13.355Z,0
2018-08-12T02:52:53.682Z,0
2018-08-12T02:55:28.718Z,0
2018-08-12T02:56:18.531Z,0
2018-08-12T02:56:56.233Z,0
2018-08-12T02:57:36.654Z,0
2018-08-12T02:58:17.353Z,0
2018-08-12T02:58:57.700Z,0
2018-08-12T02:59:38.111Z,0
2018-08-12T03:00:18.536Z,0
2018-08-12T03:00:59.071Z,0
2018-08-12T03:01:39.407Z,0
2018-08-12T03:02:19.797Z,0
2018-08-12T03:03:00.390Z,0
2018-08-12T03:03:40.617Z,0
2018-08-12T03:04:21.017Z,0
2018-08-12T03:05:01.444Z,0
2018-08-12T03:05:41.939Z,0
2018-08-12T03:06:22.827Z,0
2018-08-12T03:07:03.496Z,0
2018-08-12T03:07:44.084Z,0
2018-08-12T03:08:24.532Z,0
2018-08-12T03:09:05.123Z,0
2018-08-12T03:09:45.650Z,0
2018-08-12T03:10:25.926Z,0
2018-08-12T03:11:06.677Z,0
2018-08-12T03:11:47.096Z,0
2018-08-12T03:12:27.549Z,0
2018-08-12T03:13:08.230Z,0
2018-08-12T03:13:48.350Z,0
2018-08-12T03:14:29.133Z,0
2018-08-12T03:15:09.343Z,0
2018-08-12T03:15:49.743Z,0
2018-08-12T03:16:30.157Z,0
2018-08-12T03:17:10.607Z,0
2018-08-12T03:17:51.253Z,0
2018-08-12T03:18:31.675Z,0
2018-08-12T03:20:32.951Z,0
2018-08-12T03:21:13.563Z,0
2018-08-12T03:21:55.288Z,0
2018-08-12T03:22:35.813Z,0
2018-08-12T03:23:16.171Z,0
2018-08-12T03:23:56.580Z,0
2018-08-12T03:24:36.965Z,0
2018-08-12T03:25:20.874Z,0
2018-08-12T03:26:01.237Z,0
2018-08-12T03:26:43.415Z,0
2018-08-12T03:27:23.876Z,0
2018-08-12T03:28:04.760Z,0
2018-08-12T03:28:45.076Z,0
2018-08-12T03:29:25.695Z,0
2018-08-12T03:30:06.224Z,0
2018-08-12T03:30:46.521Z,0
2018-08-12T03:31:26.866Z,0
2018-08-12T03:32:07.292Z,0
2018-08-12T03:32:47.650Z,0
2018-08-12T03:33:28.165Z,0
2018-08-12T03:34:08.472Z,0
2018-08-12T03:34:48.921Z,0
2018-08-12T03:35:29.361Z,0
2018-08-12T03:36:09.715Z,0
2018-08-12T03:36:51.204Z,0
2018-08-12T03:37:31.577Z,0
2018-08-12T03:38:12.112Z,0
2018-08-12T03:38:52.675Z,0
2018-08-12T03:39:33.071Z,0
2018-08-12T03:40:14.433Z,0
2018-08-12T03:40:54.761Z,4
2018-08-12T03:41:35.200Z,4
2018-08-12T03:42:15.592Z,4
2018-08-12T03:42:56.054Z,0
2018-08-12T03:43:36.442Z,0
2018-08-12T03:44:16.874Z,4
2018-08-12T03:44:58.954Z,4
2018-08-12T03:45:39.623Z,0
2018-08-12T03:46:19.991Z,4
2018-08-12T03:47:02.611Z,0
2018-08-12T03:47:42.970Z,4
2018-08-12T03:48:23.383Z,4
2018-08-12T03:49:03.738Z,4
2018-08-12T03:49:44.176Z,4
2018-08-12T03:50:24.558Z,4
2018-08-12T03:51:04.955Z,8
2018-08-12T03:51:45.463Z,8
2018-08-12T03:52:25.847Z,8
2018-08-12T03:53:06.347Z,8
2018-08-12T03:53:46.615Z,8
2018-08-12T03:54:27.212Z,12
2018-08-12T03:55:07.556Z,8
2018-08-12T03:55:47.940Z,12
2018-08-12T03:56:28.744Z,12
2018-08-12T03:57:09.321Z,16
2018-08-12T03:57:49.969Z,16
2018-08-12T03:58:30.336Z,16
2018-08-12T03:59:10.785Z,20
2018-08-12T03:59:51.256Z,20
2018-08-12T04:00:31.574Z,24
2018-08-12T04:01:12.032Z,24
2018-08-12T04:01:52.375Z,24
2018-08-12T04:02:32.875Z,28
2018-08-12T04:03:13.817Z,28
2018-08-12T04:03:54.241Z,32
2018-08-12T04:04:34.697Z,36
2018-08-12T04:05:15.129Z,36
2018-08-12T04:05:55.681Z,44
2018-08-12T04:06:36.003Z,44
2018-08-12T04:07:16.380Z,48
2018-08-12T04:07:56.765Z,52
2018-08-12T04:08:39.839Z,56
2018-08-12T04:09:22.941Z,64
2018-08-12T04:10:03.380Z,68
2018-08-12T04:10:43.845Z,68
2018-08-12T04:11:24.244Z,72
2018-08-12T04:12:04.722Z,80
2018-08-12T04:12:45.090Z,84
2018-08-12T04:13:25.545Z,88
2018-08-12T04:14:05.875Z,92
2018-08-12T04:14:46.411Z,104
2018-08-12T04:15:27.529Z,112
2018-08-12T04:16:07.214Z,124
2018-08-12T04:16:47.606Z,132
2018-08-12T04:21:51.003Z,208
2018-08-12T04:22:31.671Z,224
2018-08-12T04:23:12.000Z,236
2018-08-12T04:23:52.446Z,272
2018-08-12T04:24:32.890Z,296
2018-08-12T04:25:13.326Z,328
2018-08-12T04:25:53.674Z,344
2018-08-12T04:26:34.091Z,344
2018-08-12T05:14:09.523Z,8096
2018-08-12T05:14:53.038Z,9712
2018-08-12T05:15:33.459Z,10120
2018-08-12T05:16:13.846Z,9684
2018-08-12T05:16:54.204Z,10680
2018-08-12T05:17:34.683Z,12096
2018-08-12T05:18:15.092Z,13088
2018-08-12T05:18:55.524Z,13344
2018-08-12T05:19:35.928Z,13696
2018-08-12T05:20:16.207Z,14848
2018-08-12T05:20:56.697Z,13472
2018-08-12T05:21:37.051Z,10444
2018-08-12T05:22:19.624Z,7940
2018-08-12T05:23:00.047Z,6336
2018-08-12T05:23:40.513Z,4224
2018-08-12T05:24:21.040Z,3508
2018-08-12T05:25:01.427Z,3444
2018-08-12T05:25:41.930Z,3552
2018-08-12T05:26:22.329Z,3476
2018-08-12T05:27:02.693Z,3528
2018-08-12T05:27:43.128Z,3728
2018-08-12T05:28:23.540Z,4200
2018-08-12T05:29:03.944Z,4800
2018-08-12T05:29:44.377Z,5944
2018-08-12T05:30:24.797Z,7584
2018-08-12T05:31:05.397Z,7824
2018-08-12T05:31:45.893Z,7544
2018-08-12T05:32:26.260Z,6804
2018-08-12T05:33:06.754Z,7904
2018-08-12T05:33:47.211Z,9084
2018-08-12T05:34:27.682Z,9500
2018-08-12T05:35:09.059Z,9280
2018-08-12T05:35:49.574Z,8572
2018-08-12T05:36:29.964Z,7884
2018-08-12T05:37:10.500Z,8024
2018-08-12T05:37:50.862Z,8084
2018-08-12T05:38:31.277Z,7664
2018-08-12T05:39:11.817Z,7944
2018-08-12T05:39:52.101Z,9060
2018-08-12T05:40:32.539Z,11820
2018-08-12T05:42:57.115Z,16640
2018-08-12T05:43:42.202Z,14528
2018-08-12T05:44:22.475Z,11640
2018-08-12T05:45:03.210Z,14944
2018-08-12T05:45:43.415Z,17440
2018-08-12T05:46:23.874Z,16320
2018-08-12T05:47:04.252Z,12724
2018-08-12T05:47:44.691Z,13504
2018-08-12T05:48:25.126Z,18592
2018-08-12T05:49:05.490Z,18848
2018-08-12T05:49:46.022Z,18304
2018-08-12T05:50:26.368Z,17024
2018-08-12T05:51:06.871Z,18048
2018-08-12T05:51:47.722Z,15232
2018-08-12T05:52:28.066Z,14144
2018-08-12T05:54:41.849Z,15552
2018-08-12T05:55:21.852Z,17760
2018-08-12T05:56:02.252Z,18144
2018-08-12T05:58:35.266Z,6740
2018-08-12T05:59:15.655Z,8104
2018-08-12T05:59:56.029Z,8544
2018-08-12T06:00:36.540Z,12692
2018-08-12T06:01:16.850Z,32032
2018-08-12T06:01:57.379Z,33568
2018-08-12T06:02:37.886Z,32896
2018-08-12T06:03:18.360Z,33344
2018-08-12T06:03:58.682Z,32576
2018-08-12T06:04:39.136Z,27232
2018-08-12T06:05:19.567Z,25696
2018-08-12T06:05:59.989Z,28320
2018-08-12T06:06:40.407Z,28736
2018-08-12T06:07:20.847Z,26656
2018-08-12T06:08:01.264Z,26816
2018-08-12T06:08:41.732Z,33280
2018-08-12T06:09:22.520Z,34496
2018-08-12T06:10:02.877Z,35456
2018-08-12T06:10:43.409Z,35584
2018-08-12T06:11:23.925Z,35200
2018-08-12T06:12:04.302Z,33888
2018-08-12T06:12:45.059Z,33152
2018-08-12T06:13:25.315Z,33888
2018-08-12T06:14:05.737Z,34400
2018-08-12T06:14:46.161Z,35840
2018-08-12T06:15:26.624Z,36448
2018-08-12T06:17:55.982Z,37344
2018-08-12T06:18:36.334Z,37760
2018-08-12T06:19:16.739Z,36576
2018-08-12T06:19:57.149Z,37952
2018-08-12T06:20:37.669Z,37760
2018-08-12T06:21:18.091Z,38624
2018-08-12T06:21:58.496Z,39680
2018-08-12T06:22:38.884Z,40352
2018-08-12T06:23:19.332Z,39488
2018-08-12T06:23:59.730Z,36928
2018-08-12T06:24:40.134Z,38592
2018-08-12T06:25:20.632Z,39424
2018-08-12T06:26:01.044Z,41024
2018-08-12T06:26:41.441Z,41504
2018-08-12T06:27:21.921Z,42080
2018-08-12T06:28:02.465Z,42464
2018-08-12T06:28:42.662Z,41664
2018-08-12T06:29:23.136Z,40448
2018-08-12T06:30:03.499Z,39520
2018-08-12T06:30:43.968Z,40032
2018-08-12T06:31:24.421Z,41152
2018-08-12T06:32:05.147Z,43616
2018-08-12T06:32:45.420Z,44448
2018-08-12T06:33:25.843Z,45120
2018-08-12T06:34:06.213Z,43456
2018-08-12T06:34:46.717Z,42016
2018-08-12T06:35:27.091Z,41440
2018-08-12T06:36:07.855Z,42624
2018-08-12T06:36:48.355Z,40480
2018-08-12T06:37:28.751Z,44960
2018-08-12T06:38:09.402Z,43360
2018-08-12T06:38:49.645Z,41728
2018-08-12T06:39:30.020Z,44128
2018-08-12T06:40:10.436Z,46112
2018-08-12T06:40:50.840Z,48608
2018-08-12T06:41:31.260Z,48160
2018-08-12T06:42:13.163Z,47104
2018-08-12T06:42:53.448Z,43360
2018-08-12T06:43:33.823Z,37888
2018-08-12T06:44:14.258Z,31360
2018-08-12T06:44:54.920Z,31520
2018-08-12T06:45:35.175Z,31712
2018-08-12T06:46:15.621Z,29696
2018-08-12T06:46:56.048Z,30592
2018-08-12T06:47:36.401Z,36672
2018-08-12T06:48:18.998Z,44576
2018-08-12T06:48:59.431Z,45920
2018-08-12T06:49:39.813Z,42464
2018-08-12T06:50:20.196Z,41152
2018-08-12T06:51:00.682Z,36000
2018-08-12T06:51:41.345Z,38080
2018-08-12T06:52:21.603Z,40000
2018-08-12T06:53:02.060Z,40256
2018-08-12T06:53:42.417Z,39552
2018-08-12T06:54:23.141Z,38560
2018-08-12T06:55:03.516Z,37280
2018-08-12T06:55:43.962Z,34592
2018-08-12T06:56:24.431Z,34048
2018-08-12T06:57:04.848Z,33920
2018-08-12T06:59:25.461Z,28064
2018-08-12T07:00:05.588Z,29408
2018-08-12T07:00:45.965Z,29344
2018-08-12T07:01:26.398Z,32544
2018-08-12T07:02:06.801Z,33216
2018-08-12T07:02:47.266Z,34368
2018-08-12T07:03:27.664Z,34880
2018-08-12T07:04:08.096Z,33888
2018-08-12T07:04:48.582Z,33824
2018-08-12T07:05:29.093Z,34016
2018-08-12T07:06:09.521Z,36320
2018-08-12T07:06:49.886Z,37728
2018-08-12T07:07:30.430Z,38528
2018-08-12T07:08:10.800Z,37760
2018-08-12T07:08:51.229Z,37376
2018-08-12T07:09:31.636Z,36608
2018-08-12T07:10:12.240Z,36672
2018-08-12T07:10:53.753Z,36480
2018-08-12T07:11:34.011Z,36640
2018-08-12T07:12:14.356Z,36832
2018-08-12T07:12:54.854Z,36736
2018-08-12T07:13:35.467Z,37024
2018-08-12T07:14:15.865Z,36704
2018-08-12T07:14:56.227Z,35872
2018-08-12T07:15:36.667Z,31488
2018-08-12T07:16:17.478Z,24416
2018-08-12T07:16:57.914Z,18496
2018-08-12T07:17:38.294Z,17888
2018-08-12T07:18:18.813Z,17504
2018-08-12T07:18:59.158Z,17248
2018-08-12T07:19:39.588Z,16320
2018-08-12T07:20:20.100Z,17184
2018-08-12T07:21:00.493Z,17312
2018-08-12T07:21:40.998Z,17152
2018-08-12T07:22:21.418Z,17280
2018-08-12T07:23:02.133Z,16992
2018-08-12T07:23:42.489Z,16512
2018-08-12T07:24:23.184Z,15796
2018-08-12T07:25:03.567Z,15748
2018-08-12T07:25:44.055Z,15812
2018-08-12T07:26:24.504Z,15596
2018-08-12T07:27:04.953Z,15760
2018-08-12T07:29:22.836Z,14616
2018-08-12T07:30:01.218Z,12696
2018-08-12T07:30:41.603Z,9604
2018-08-12T07:31:21.969Z,7552
2018-08-12T07:32:02.404Z,6624
2018-08-12T07:32:42.842Z,6324
2018-08-12T07:33:23.447Z,6116
2018-08-12T07:34:03.694Z,6024
2018-08-12T07:34:44.099Z,5888
2018-08-12T07:35:24.509Z,5732
2018-08-12T07:36:05.054Z,5624
2018-08-12T07:36:45.714Z,5532
2018-08-12T07:37:26.116Z,5508
2018-08-12T07:38:07.968Z,5376
2018-08-12T07:38:48.400Z,5140
2018-08-12T07:39:28.765Z,5244
2018-08-12T07:40:10.595Z,5140
2018-08-12T07:40:51.270Z,5184
2018-08-12T07:41:31.644Z,5100
2018-08-12T07:42:12.025Z,4980
2018-08-12T07:42:52.461Z,4896
2018-08-12T07:43:35.648Z,4748
2018-08-12T07:44:15.307Z,4736
2018-08-12T07:44:55.352Z,4540
2018-08-12T07:45:37.590Z,4544
2018-08-12T07:46:18.828Z,4540
2018-08-12T07:46:59.611Z,4448
2018-08-12T07:47:39.545Z,4356
2018-08-12T07:48:20.131Z,4284
2018-08-12T07:49:01.181Z,4232
2018-08-12T07:49:42.165Z,4196
2018-08-12T07:50:24.826Z,4108
2018-08-12T07:51:06.494Z,4040
2018-08-12T07:51:46.908Z,3960
2018-08-12T07:52:27.333Z,3944
2018-08-12T07:54:25.867Z,3872
2018-08-12T07:55:05.758Z,3840
2018-08-12T07:55:46.220Z,3788
2018-08-12T07:56:26.592Z,3808
2018-08-12T07:57:07.121Z,3792
2018-08-12T07:57:47.446Z,3732
2018-08-12T07:58:28.019Z,3684
2018-08-12T07:59:08.452Z,3700
2018-08-12T07:59:49.087Z,3656
2018-08-12T08:00:29.699Z,3628
2018-08-12T08:01:10.158Z,3608
2018-08-12T08:01:50.570Z,3568
2018-08-12T08:02:31.039Z,3524
2018-08-12T08:03:11.489Z,3480
2018-08-12T08:03:52.153Z,3452
2018-08-12T08:04:32.441Z,3420
2018-08-12T08:05:12.842Z,3396
2018-08-12T08:05:54.805Z,3360
2018-08-12T08:06:34.722Z,3340
2018-08-12T08:07:15.688Z,3332
2018-08-12T08:07:57.065Z,3324
2018-08-12T08:08:37.527Z,3288
2018-08-12T08:09:18.818Z,3256
2018-08-12T08:10:05.613Z,3248
2018-08-12T08:10:50.089Z,3228
2018-08-12T08:11:30.994Z,3188
2018-08-12T08:12:11.521Z,3156
2018-08-12T08:14:58.120Z,3164
2018-08-12T08:24:06.981Z,3108
2018-08-12T08:24:47.677Z,3120
2018-08-12T08:25:28.126Z,3100
2018-08-12T08:26:08.805Z,3096
2018-08-12T08:26:49.241Z,3068
2018-08-12T08:27:29.714Z,3076
2018-08-12T08:28:10.150Z,3084
2018-08-12T08:28:50.796Z,3088
2018-08-12T08:29:32.131Z,3064
2018-08-12T08:30:14.836Z,3064
2018-08-12T08:30:57.364Z,3052
2018-08-12T08:31:38.189Z,3036
2018-08-12T08:33:02.329Z,3068
2018-08-12T08:33:42.697Z,3056
2018-08-12T08:34:23.209Z,3036
2018-08-12T08:36:46.022Z,2988
2018-08-12T08:37:26.407Z,2992
2018-08-12T08:38:10.235Z,2976
2018-08-12T08:39:04.924Z,2940
2018-08-12T08:41:00.283Z,2892
2018-08-12T08:41:40.968Z,2852
2018-08-12T08:42:38.579Z,2848
2018-08-12T08:43:18.836Z,2844
2018-08-12T08:43:59.472Z,2828
2018-08-12T08:44:57.855Z,2796
2018-08-12T08:45:39.317Z,2792
2018-08-12T08:46:21.131Z,2776
2018-08-12T08:47:01.872Z,2776
2018-08-12T08:47:42.209Z,2756
2018-08-12T08:48:22.665Z,2744
2018-08-12T08:52:02.637Z,2724
2018-08-12T08:52:43.192Z,2720
2018-08-12T08:53:24.246Z,2728
2018-08-12T08:54:04.612Z,2708
2018-08-12T08:54:46.228Z,2724
2018-08-12T08:55:26.860Z,2704
2018-08-12T08:56:08.300Z,2700
2018-08-12T08:56:48.579Z,2712
2018-08-12T08:57:30.242Z,2728
2018-08-12T09:02:13.145Z,2800
2018-08-12T09:02:53.625Z,2788
2018-08-12T09:03:34.211Z,2764
2018-08-12T09:04:14.507Z,2752
2018-08-12T09:08:42.408Z,2640
2018-08-12T09:09:21.530Z,2628
2018-08-12T09:10:03.130Z,2632
2018-08-12T09:10:44.440Z,2652
2018-08-12T09:11:24.888Z,2632
2018-08-12T09:12:05.324Z,2620
2018-08-12T09:12:45.699Z,2624
2018-08-12T09:13:26.265Z,2624
2018-08-12T09:14:08.081Z,2628
2018-08-12T09:14:48.596Z,2620
2018-08-12T09:15:29.904Z,2600
2018-08-12T09:16:10.885Z,2548
2018-08-12T09:16:51.841Z,2504
2018-08-12T09:17:32.524Z,2468
2018-08-12T09:18:13.051Z,2476
2018-08-12T09:18:53.628Z,2504
2018-08-12T09:19:34.075Z,2472
2018-08-12T09:20:18.519Z,2440
2018-08-12T09:22:54.899Z,2372
2018-08-12T09:23:35.118Z,2364
2018-08-12T09:24:16.048Z,2392
2018-08-12T09:24:56.307Z,2336
2018-08-12T09:25:37.473Z,2372
2018-08-12T09:26:17.899Z,2380
2018-08-12T09:26:58.353Z,2392
2018-08-12T09:27:38.717Z,2360
2018-08-12T09:28:19.493Z,2380
2018-08-12T09:29:00.049Z,2396
2018-08-12T09:29:40.374Z,2404
2018-08-12T09:30:20.807Z,2380
2018-08-12T09:31:01.893Z,2396
2018-08-12T09:31:42.372Z,2420
2018-08-12T09:32:22.797Z,2380
2018-08-12T09:36:13.345Z,2340
2018-08-12T09:40:42.294Z,2272
2018-08-12T09:41:34.194Z,2268
2018-08-12T09:42:26.338Z,2240
2018-08-12T09:43:18.813Z,2240
2018-08-12T09:44:10.230Z,2236
2018-08-12T09:44:58.779Z,2212
2018-08-12T09:45:38.961Z,2192
2018-08-12T09:46:19.350Z,2244
2018-08-12T09:46:59.791Z,2264
2018-08-12T09:47:40.162Z,2264
2018-08-12T09:48:20.747Z,2260
2018-08-12T09:49:01.125Z,2248
2018-08-12T09:49:41.502Z,2232
2018-08-12T09:50:21.954Z,2240
2018-08-12T09:51:02.301Z,2248
2018-08-12T09:51:42.878Z,2252
2018-08-12T09:52:23.160Z,2268
2018-08-12T09:53:03.683Z,2228
2018-08-12T09:53:45.622Z,2232
2018-08-12T09:54:26.732Z,2248
2018-08-12T09:55:06.693Z,2248
2018-08-12T09:55:47.667Z,2232
2018-08-12T09:56:28.088Z,2260
2018-08-12T09:57:08.625Z,2260
2018-08-12T09:57:49.375Z,2252
2018-08-12T09:58:30.340Z,2244
2018-08-12T09:59:10.876Z,2228
2018-08-12T09:59:51.838Z,2220
2018-08-12T10:00:32.282Z,2220
2018-08-12T10:01:12.677Z,2224
2018-08-12T10:01:53.078Z,2224
2018-08-12T10:02:33.473Z,2220
2018-08-12T10:03:13.946Z,2188
2018-08-12T10:03:55.084Z,2192
2018-08-12T10:04:35.577Z,2132
2018-08-12T10:05:15.921Z,2148
2018-08-12T10:05:57.155Z,2172
2018-08-12T10:06:37.448Z,2168
2018-08-12T10:07:17.828Z,2136
2018-08-12T10:07:58.230Z,2136
2018-08-12T10:08:38.731Z,2088
2018-08-12T10:09:19.962Z,2068
2018-08-12T10:10:00.679Z,2092
2018-08-12T10:10:41.005Z,2088
2018-08-12T10:11:21.586Z,2044
2018-08-12T10:12:03.550Z,2028
2018-08-12T10:12:43.943Z,1996
2018-08-12T10:13:24.893Z,2016
2018-08-12T10:14:05.192Z,1984
2018-08-12T10:14:47.648Z,2008
2018-08-12T10:15:27.957Z,1940
2018-08-12T10:16:08.362Z,1984
2018-08-12T10:16:48.761Z,2032
2018-08-12T10:17:29.736Z,1992
2018-08-12T10:18:10.123Z,2052
2018-08-12T10:18:50.701Z,2040
2018-08-12T10:19:32.032Z,2052
2018-08-12T10:20:12.593Z,2024
2018-08-12T10:20:53.235Z,2036
2018-08-12T10:21:33.754Z,2044
2018-08-12T10:22:14.453Z,2060
2018-08-12T10:22:54.893Z,2048
2018-08-12T10:23:35.634Z,2012
2018-08-12T10:24:15.931Z,2020
2018-08-12T10:24:59.644Z,1960
2018-08-12T10:25:39.979Z,1928
2018-08-12T10:26:20.575Z,1924
2018-08-12T10:27:01.081Z,1944
2018-08-12T10:27:41.572Z,1936
2018-08-12T10:28:22.025Z,1948
2018-08-12T11:16:15.655Z,2168
2018-08-12T11:16:55.751Z,2040
2018-08-12T11:17:37.360Z,2148
2018-08-12T11:18:17.651Z,2204
2018-08-12T11:18:58.055Z,2224
2018-08-12T11:19:38.443Z,2148
2018-08-12T11:20:19.897Z,2144
2018-08-12T11:21:00.250Z,2108
2018-08-12T11:21:40.890Z,2128
2018-08-12T11:22:21.312Z,2080
2018-08-12T11:23:01.754Z,2060
2018-08-12T11:23:42.238Z,2092
2018-08-12T11:24:22.663Z,2120
2018-08-12T11:25:03.273Z,2092
2018-08-12T11:25:43.574Z,2100
2018-08-12T11:26:24.936Z,2096
2018-08-12T11:27:08.523Z,2076
2018-08-12T11:33:02.718Z,2072
2018-08-12T11:33:44.420Z,2040
2018-08-12T11:34:24.929Z,2060
2018-08-12T11:35:06.263Z,2048
2018-08-12T11:35:46.709Z,2096
2018-08-12T11:36:27.164Z,2112
2018-08-12T11:37:07.574Z,2156
2018-08-12T11:37:48.010Z,2176
2018-08-12T11:38:28.432Z,2204
2018-08-12T11:39:09.619Z,2108
2018-08-12T11:39:51.944Z,2196
2018-08-12T11:40:32.291Z,2200
2018-08-12T11:41:13.045Z,2160
2018-08-12T11:41:54.167Z,2176
2018-08-12T11:42:34.081Z,2232
2018-08-12T11:43:14.494Z,2120
2018-08-12T11:43:55.191Z,2144
2018-08-12T11:44:35.633Z,2108
2018-08-12T11:45:15.857Z,2120
2018-08-12T11:45:56.226Z,2152
2018-08-12T11:46:36.768Z,2124
2018-08-12T11:47:17.159Z,2124
2018-08-12T11:47:58.919Z,2080
2018-08-12T11:48:39.154Z,2048
2018-08-12T11:49:20.161Z,2020
2018-08-12T11:50:01.387Z,2068
2018-08-12T11:50:42.149Z,2000
2018-08-12T11:51:22.680Z,1968
2018-08-12T11:52:03.833Z,1992
2018-08-12T11:52:44.295Z,1916
2018-08-12T11:53:24.553Z,1792
2018-08-12T11:54:04.981Z,1908
2018-08-12T11:54:45.350Z,1944
2018-08-12T11:55:25.791Z,1996
2018-08-12T11:56:06.259Z,1948
2018-08-12T11:56:46.609Z,2016
2018-08-12T11:57:27.053Z,1968
2018-08-12T11:58:07.517Z,1952
2018-08-12T11:58:47.938Z,1788
2018-08-12T11:59:28.354Z,1832
2018-08-12T12:00:08.802Z,1852
2018-08-12T12:00:49.212Z,1880
2018-08-12T12:01:29.688Z,1880
2018-08-12T12:02:10.154Z,1860
2018-08-12T12:02:50.529Z,1992